sensor_id;sensor_type;location;lat;lon;timestamp;temperature;humidity
67141;DHT22;54058;52.010;5.546;2023-07-30T00:01:21;17.70;81.60
67141;DHT22;54058;52.010;5.546;2023-07-30T00:03:46;17.60;81.60
67141;DHT22;54058;52.010;5.546;2023-07-30T00:06:12;17.60;81.80
67141;DHT22;54058;52.010;5.546;2023-07-30T00:08:37;17.60;81.80
67141;DHT22;54058;52.010;5.546;2023-07-30T00:11:03;17.50;81.70
67141;DHT22;54058;52.010;5.546;2023-07-30T00:13:29;17.50;81.80
67141;DHT22;54058;52.010;5.546;2023-07-30T00:15:54;17.50;81.90
67141;DHT22;54058;52.010;5.546;2023-07-30T00:18:20;17.50;81.90
67141;DHT22;54058;52.010;5.546;2023-07-30T00:20:45;17.50;81.90
67141;DHT22;54058;52.010;5.546;2023-07-30T00:23:11;17.50;82.00
67141;DHT22;54058;52.010;5.546;2023-07-30T00:25:37;17.50;82.00
67141;DHT22;54058;52.010;5.546;2023-07-30T00:28:02;17.50;82.10
67141;DHT22;54058;52.010;5.546;2023-07-30T00:30:28;17.50;82.10
67141;DHT22;54058;52.010;5.546;2023-07-30T00:32:54;17.40;82.00
67141;DHT22;54058;52.010;5.546;2023-07-30T00:35:19;17.40;82.00
67141;DHT22;54058;52.010;5.546;2023-07-30T00:37:45;17.40;82.10
67141;DHT22;54058;52.010;5.546;2023-07-30T00:40:11;17.40;82.10
67141;DHT22;54058;52.010;5.546;2023-07-30T00:42:37;17.40;82.10
67141;DHT22;54058;52.010;5.546;2023-07-30T00:45:03;17.40;82.20
67141;DHT22;54058;52.010;5.546;2023-07-30T00:47:30;17.40;82.30
67141;DHT22;54058;52.010;5.546;2023-07-30T00:49:55;17.30;82.20
67141;DHT22;54058;52.010;5.546;2023-07-30T00:52:22;17.30;82.30
67141;DHT22;54058;52.010;5.546;2023-07-30T00:54:49;17.30;82.30
67141;DHT22;54058;52.010;5.546;2023-07-30T00:57:16;17.30;82.30
67141;DHT22;54058;52.010;5.546;2023-07-30T00:59:43;17.30;82.40
67141;DHT22;54058;52.010;5.546;2023-07-30T01:02:09;17.30;82.40
67141;DHT22;54058;52.010;5.546;2023-07-30T01:04:35;17.30;82.40
67141;DHT22;54058;52.010;5.546;2023-07-30T01:07:03;17.30;82.50
67141;DHT22;54058;52.010;5.546;2023-07-30T01:09:28;17.20;82.40
67141;DHT22;54058;52.010;5.546;2023-07-30T01:11:55;17.20;82.60
67141;DHT22;54058;52.010;5.546;2023-07-30T01:14:21;17.20;82.60
67141;DHT22;54058;52.010;5.546;2023-07-30T01:16:48;17.20;82.70
67141;DHT22;54058;52.010;5.546;2023-07-30T01:19:14;17.20;82.70
67141;DHT22;54058;52.010;5.546;2023-07-30T01:21:40;17.20;82.70
67141;DHT22;54058;52.010;5.546;2023-07-30T01:24:05;17.20;82.70
67141;DHT22;54058;52.010;5.546;2023-07-30T01:26:44;17.20;82.80
67141;DHT22;54058;52.010;5.546;2023-07-30T01:29:21;17.20;83.10
67141;DHT22;54058;52.010;5.546;2023-07-30T01:31:54;17.20;82.80
67141;DHT22;54058;52.010;5.546;2023-07-30T01:34:22;17.10;82.90
67141;DHT22;54058;52.010;5.546;2023-07-30T01:36:49;17.10;82.90
67141;DHT22;54058;52.010;5.546;2023-07-30T01:39:15;17.10;83.10
67141;DHT22;54058;52.010;5.546;2023-07-30T01:41:41;17.10;83.10
67141;DHT22;54058;52.010;5.546;2023-07-30T01:44:07;17.00;83.10
67141;DHT22;54058;52.010;5.546;2023-07-30T01:46:32;17.10;83.30
67141;DHT22;54058;52.010;5.546;2023-07-30T01:48:58;17.10;83.20
67141;DHT22;54058;52.010;5.546;2023-07-30T01:51:24;17.10;83.30
67141;DHT22;54058;52.010;5.546;2023-07-30T01:53:49;17.10;83.30
67141;DHT22;54058;52.010;5.546;2023-07-30T01:56:15;17.00;83.20
67141;DHT22;54058;52.010;5.546;2023-07-30T01:58:40;17.00;83.20
67141;DHT22;54058;52.010;5.546;2023-07-30T02:01:06;17.00;83.30
67141;DHT22;54058;52.010;5.546;2023-07-30T02:03:32;17.00;83.40
67141;DHT22;54058;52.010;5.546;2023-07-30T02:05:57;17.00;83.40
67141;DHT22;54058;52.010;5.546;2023-07-30T02:08:23;17.10;83.50
67141;DHT22;54058;52.010;5.546;2023-07-30T02:10:56;17.00;83.50
67141;DHT22;54058;52.010;5.546;2023-07-30T02:13:22;17.00;83.70
67141;DHT22;54058;52.010;5.546;2023-07-30T02:15:47;17.00;83.60
67141;DHT22;54058;52.010;5.546;2023-07-30T02:18:13;17.00;83.60
67141;DHT22;54058;52.010;5.546;2023-07-30T02:20:38;17.00;83.60
67141;DHT22;54058;52.010;5.546;2023-07-30T02:23:04;17.00;83.70
67141;DHT22;54058;52.010;5.546;2023-07-30T02:25:30;17.00;83.70
67141;DHT22;54058;52.010;5.546;2023-07-30T02:27:57;16.90;83.70
67141;DHT22;54058;52.010;5.546;2023-07-30T02:30:22;17.00;84.40
67141;DHT22;54058;52.010;5.546;2023-07-30T02:32:48;17.00;83.90
67141;DHT22;54058;52.010;5.546;2023-07-30T02:35:14;17.00;83.90
67141;DHT22;54058;52.010;5.546;2023-07-30T02:37:39;16.90;84.00
67141;DHT22;54058;52.010;5.546;2023-07-30T02:40:05;17.00;84.10
67141;DHT22;54058;52.010;5.546;2023-07-30T02:42:31;16.90;84.10
67141;DHT22;54058;52.010;5.546;2023-07-30T02:44:57;17.00;84.20
67141;DHT22;54058;52.010;5.546;2023-07-30T02:47:22;16.90;84.20
67141;DHT22;54058;52.010;5.546;2023-07-30T02:49:48;16.90;84.20
67141;DHT22;54058;52.010;5.546;2023-07-30T02:52:13;16.90;84.30
67141;DHT22;54058;52.010;5.546;2023-07-30T02:54:39;16.90;84.30
67141;DHT22;54058;52.010;5.546;2023-07-30T02:57:05;16.90;84.30
67141;DHT22;54058;52.010;5.546;2023-07-30T02:59:30;16.90;84.40
67141;DHT22;54058;52.010;5.546;2023-07-30T03:01:56;16.90;84.50
67141;DHT22;54058;52.010;5.546;2023-07-30T03:04:22;16.90;84.60
67141;DHT22;54058;52.010;5.546;2023-07-30T03:06:47;16.90;84.70
67141;DHT22;54058;52.010;5.546;2023-07-30T03:09:13;16.90;84.80
67141;DHT22;54058;52.010;5.546;2023-07-30T03:11:38;16.90;84.80
67141;DHT22;54058;52.010;5.546;2023-07-30T03:14:04;16.90;84.80
67141;DHT22;54058;52.010;5.546;2023-07-30T03:16:30;16.90;84.80
67141;DHT22;54058;52.010;5.546;2023-07-30T03:18:55;16.90;84.80
67141;DHT22;54058;52.010;5.546;2023-07-30T03:21:21;16.90;84.90
67141;DHT22;54058;52.010;5.546;2023-07-30T03:23:46;16.90;85.00
67141;DHT22;54058;52.010;5.546;2023-07-30T03:26:13;16.90;85.10
67141;DHT22;54058;52.010;5.546;2023-07-30T03:28:39;16.90;85.10
67141;DHT22;54058;52.010;5.546;2023-07-30T03:31:05;16.80;85.20
67141;DHT22;54058;52.010;5.546;2023-07-30T03:33:31;16.80;85.30
67141;DHT22;54058;52.010;5.546;2023-07-30T03:35:57;16.80;85.30
67141;DHT22;54058;52.010;5.546;2023-07-30T03:38:22;16.80;85.30
67141;DHT22;54058;52.010;5.546;2023-07-30T03:40:48;16.80;85.50
67141;DHT22;54058;52.010;5.546;2023-07-30T03:43:13;16.80;85.50
67141;DHT22;54058;52.010;5.546;2023-07-30T03:45:39;16.80;86.20
67141;DHT22;54058;52.010;5.546;2023-07-30T03:48:05;16.80;85.70
67141;DHT22;54058;52.010;5.546;2023-07-30T03:50:31;16.80;85.80
67141;DHT22;54058;52.010;5.546;2023-07-30T03:52:56;16.80;85.90
67141;DHT22;54058;52.010;5.546;2023-07-30T03:55:23;16.90;86.00
67141;DHT22;54058;52.010;5.546;2023-07-30T03:57:49;16.90;86.10
67141;DHT22;54058;52.010;5.546;2023-07-30T04:00:15;16.90;86.10
67141;DHT22;54058;52.010;5.546;2023-07-30T04:02:40;16.90;86.20
67141;DHT22;54058;52.010;5.546;2023-07-30T04:05:06;16.90;86.20
67141;DHT22;54058;52.010;5.546;2023-07-30T04:07:32;16.90;86.30
67141;DHT22;54058;52.010;5.546;2023-07-30T04:09:57;16.90;86.40
67141;DHT22;54058;52.010;5.546;2023-07-30T04:12:23;16.90;86.40
67141;DHT22;54058;52.010;5.546;2023-07-30T04:14:49;17.00;86.50
67141;DHT22;54058;52.010;5.546;2023-07-30T04:17:14;16.90;86.50
67141;DHT22;54058;52.010;5.546;2023-07-30T04:19:40;17.00;86.60
67141;DHT22;54058;52.010;5.546;2023-07-30T04:22:05;17.00;86.60
67141;DHT22;54058;52.010;5.546;2023-07-30T04:24:31;17.00;86.70
67141;DHT22;54058;52.010;5.546;2023-07-30T04:26:56;17.00;86.70
67141;DHT22;54058;52.010;5.546;2023-07-30T04:29:22;17.10;86.90
67141;DHT22;54058;52.010;5.546;2023-07-30T04:31:48;17.10;87.10
67141;DHT22;54058;52.010;5.546;2023-07-30T04:34:13;17.10;87.10
67141;DHT22;54058;52.010;5.546;2023-07-30T04:36:40;17.20;87.10
67141;DHT22;54058;52.010;5.546;2023-07-30T04:39:05;17.20;87.20
67141;DHT22;54058;52.010;5.546;2023-07-30T04:41:31;17.20;87.20
67141;DHT22;54058;52.010;5.546;2023-07-30T04:43:57;17.30;87.40
67141;DHT22;54058;52.010;5.546;2023-07-30T04:46:22;17.30;87.40
67141;DHT22;54058;52.010;5.546;2023-07-30T04:48:48;17.30;88.10
67141;DHT22;54058;52.010;5.546;2023-07-30T04:51:13;17.40;88.20
67141;DHT22;54058;52.010;5.546;2023-07-30T04:53:39;17.50;87.60
67141;DHT22;54058;52.010;5.546;2023-07-30T04:56:05;17.50;87.60
67141;DHT22;54058;52.010;5.546;2023-07-30T04:58:30;17.60;87.70
67141;DHT22;54058;52.010;5.546;2023-07-30T05:00:56;17.60;87.80
67141;DHT22;54058;52.010;5.546;2023-07-30T05:03:21;17.60;87.80
67141;DHT22;54058;52.010;5.546;2023-07-30T05:05:47;17.60;87.90
67141;DHT22;54058;52.010;5.546;2023-07-30T05:08:13;17.70;88.00
67141;DHT22;54058;52.010;5.546;2023-07-30T05:10:38;17.70;88.00
67141;DHT22;54058;52.010;5.546;2023-07-30T05:13:04;17.70;88.00
67141;DHT22;54058;52.010;5.546;2023-07-30T05:15:30;17.80;88.10
67141;DHT22;54058;52.010;5.546;2023-07-30T05:17:55;17.90;88.10
67141;DHT22;54058;52.010;5.546;2023-07-30T05:20:21;18.00;88.10
67141;DHT22;54058;52.010;5.546;2023-07-30T05:22:46;18.00;88.00
67141;DHT22;54058;52.010;5.546;2023-07-30T05:25:12;18.10;88.00
67141;DHT22;54058;52.010;5.546;2023-07-30T05:27:37;18.20;88.10
67141;DHT22;54058;52.010;5.546;2023-07-30T05:30:04;18.20;88.20
67141;DHT22;54058;52.010;5.546;2023-07-30T05:32:30;18.30;88.20
67141;DHT22;54058;52.010;5.546;2023-07-30T05:34:55;18.30;88.20
67141;DHT22;54058;52.010;5.546;2023-07-30T05:37:21;18.40;88.20
67141;DHT22;54058;52.010;5.546;2023-07-30T05:39:46;18.50;88.30
67141;DHT22;54058;52.010;5.546;2023-07-30T05:42:12;18.50;88.30
67141;DHT22;54058;52.010;5.546;2023-07-30T05:44:37;18.60;88.40
67141;DHT22;54058;52.010;5.546;2023-07-30T05:47:03;18.60;88.30
67141;DHT22;54058;52.010;5.546;2023-07-30T05:49:29;18.60;88.20
67141;DHT22;54058;52.010;5.546;2023-07-30T05:51:55;18.60;88.30
67141;DHT22;54058;52.010;5.546;2023-07-30T05:54:21;18.60;88.40
67141;DHT22;54058;52.010;5.546;2023-07-30T05:56:46;18.60;88.40
67141;DHT22;54058;52.010;5.546;2023-07-30T05:59:12;18.70;88.50
67141;DHT22;54058;52.010;5.546;2023-07-30T06:01:38;18.70;88.60
67141;DHT22;54058;52.010;5.546;2023-07-30T06:04:04;18.70;88.60
67141;DHT22;54058;52.010;5.546;2023-07-30T06:06:29;18.80;88.60
67141;DHT22;54058;52.010;5.546;2023-07-30T06:08:55;18.80;88.70
67141;DHT22;54058;52.010;5.546;2023-07-30T06:11:21;18.80;88.70
67141;DHT22;54058;52.010;5.546;2023-07-30T06:13:47;18.90;88.70
67141;DHT22;54058;52.010;5.546;2023-07-30T06:16:13;18.90;88.60
67141;DHT22;54058;52.010;5.546;2023-07-30T06:18:39;19.00;88.60
67141;DHT22;54058;52.010;5.546;2023-07-30T06:21:05;19.00;88.60
67141;DHT22;54058;52.010;5.546;2023-07-30T06:23:30;18.90;88.50
67141;DHT22;54058;52.010;5.546;2023-07-30T06:25:56;19.00;88.70
67141;DHT22;54058;52.010;5.546;2023-07-30T06:28:21;19.00;88.70
67141;DHT22;54058;52.010;5.546;2023-07-30T06:30:48;19.00;88.70
67141;DHT22;54058;52.010;5.546;2023-07-30T06:33:14;19.00;88.80
67141;DHT22;54058;52.010;5.546;2023-07-30T06:35:40;19.10;88.90
67141;DHT22;54058;52.010;5.546;2023-07-30T06:38:07;19.20;88.90
67141;DHT22;54058;52.010;5.546;2023-07-30T06:40:33;19.20;88.70
67141;DHT22;54058;52.010;5.546;2023-07-30T06:42:59;19.20;88.60
67141;DHT22;54058;52.010;5.546;2023-07-30T06:45:24;19.30;88.80
67141;DHT22;54058;52.010;5.546;2023-07-30T06:47:50;19.30;88.80
67141;DHT22;54058;52.010;5.546;2023-07-30T06:50:15;19.50;88.80
67141;DHT22;54058;52.010;5.546;2023-07-30T06:52:41;19.70;88.70
67141;DHT22;54058;52.010;5.546;2023-07-30T06:55:07;19.90;88.60
67141;DHT22;54058;52.010;5.546;2023-07-30T06:57:32;20.00;88.40
67141;DHT22;54058;52.010;5.546;2023-07-30T06:59:58;20.00;88.40
67141;DHT22;54058;52.010;5.546;2023-07-30T07:02:24;20.00;88.50
67141;DHT22;54058;52.010;5.546;2023-07-30T07:04:50;20.10;88.50
67141;DHT22;54058;52.010;5.546;2023-07-30T07:07:16;20.10;89.00
67141;DHT22;54058;52.010;5.546;2023-07-30T07:09:41;20.10;88.40
67141;DHT22;54058;52.010;5.546;2023-07-30T07:12:07;20.10;88.30
67141;DHT22;54058;52.010;5.546;2023-07-30T07:14:33;20.10;88.30
67141;DHT22;54058;52.010;5.546;2023-07-30T07:16:58;20.10;88.30
67141;DHT22;54058;52.010;5.546;2023-07-30T07:19:24;20.00;88.10
67141;DHT22;54058;52.010;5.546;2023-07-30T07:21:50;20.00;88.10
67141;DHT22;54058;52.010;5.546;2023-07-30T07:24:16;20.00;88.00
67141;DHT22;54058;52.010;5.546;2023-07-30T07:26:41;20.00;88.10
67141;DHT22;54058;52.010;5.546;2023-07-30T07:29:07;20.10;88.10
67141;DHT22;54058;52.010;5.546;2023-07-30T07:31:33;20.10;88.10
67141;DHT22;54058;52.010;5.546;2023-07-30T07:33:59;20.10;87.80
67141;DHT22;54058;52.010;5.546;2023-07-30T07:36:24;20.10;87.60
67141;DHT22;54058;52.010;5.546;2023-07-30T07:38:50;19.90;87.70
67141;DHT22;54058;52.010;5.546;2023-07-30T07:41:16;19.90;87.90
67141;DHT22;54058;52.010;5.546;2023-07-30T07:43:42;19.90;87.80
67141;DHT22;54058;52.010;5.546;2023-07-30T07:46:08;19.90;87.80
67141;DHT22;54058;52.010;5.546;2023-07-30T07:48:39;20.00;87.60
67141;DHT22;54058;52.010;5.546;2023-07-30T07:51:05;20.00;87.50
67141;DHT22;54058;52.010;5.546;2023-07-30T07:53:31;20.00;87.50
67141;DHT22;54058;52.010;5.546;2023-07-30T07:55:57;20.00;87.40
67141;DHT22;54058;52.010;5.546;2023-07-30T07:58:22;20.10;87.40
67141;DHT22;54058;52.010;5.546;2023-07-30T08:00:48;20.10;87.20
67141;DHT22;54058;52.010;5.546;2023-07-30T08:03:13;20.10;87.10
67141;DHT22;54058;52.010;5.546;2023-07-30T08:05:39;20.20;87.00
67141;DHT22;54058;52.010;5.546;2023-07-30T08:08:05;20.30;87.00
67141;DHT22;54058;52.010;5.546;2023-07-30T08:10:30;20.40;86.70
67141;DHT22;54058;52.010;5.546;2023-07-30T08:12:56;20.60;86.60
67141;DHT22;54058;52.010;5.546;2023-07-30T08:15:22;20.70;86.60
67141;DHT22;54058;52.010;5.546;2023-07-30T08:17:47;20.90;86.50
67141;DHT22;54058;52.010;5.546;2023-07-30T08:20:13;21.00;86.60
67141;DHT22;54058;52.010;5.546;2023-07-30T08:22:38;21.10;87.10
67141;DHT22;54058;52.010;5.546;2023-07-30T08:25:05;21.40;87.70
67141;DHT22;54058;52.010;5.546;2023-07-30T08:27:30;21.60;88.40
67141;DHT22;54058;52.010;5.546;2023-07-30T08:29:56;21.90;88.30
67141;DHT22;54058;52.010;5.546;2023-07-30T08:32:21;22.10;88.50
67141;DHT22;54058;52.010;5.546;2023-07-30T08:34:47;22.20;87.90
67141;DHT22;54058;52.010;5.546;2023-07-30T08:37:13;22.20;88.20
67141;DHT22;54058;52.010;5.546;2023-07-30T08:39:38;22.30;88.20
67141;DHT22;54058;52.010;5.546;2023-07-30T08:42:04;22.30;87.60
67141;DHT22;54058;52.010;5.546;2023-07-30T08:44:30;22.30;87.40
67141;DHT22;54058;52.010;5.546;2023-07-30T08:46:56;22.40;86.90
67141;DHT22;54058;52.010;5.546;2023-07-30T08:49:21;22.30;86.40
67141;DHT22;54058;52.010;5.546;2023-07-30T08:51:48;22.10;86.10
67141;DHT22;54058;52.010;5.546;2023-07-30T08:54:18;21.90;85.80
67141;DHT22;54058;52.010;5.546;2023-07-30T08:56:45;21.80;85.80
67141;DHT22;54058;52.010;5.546;2023-07-30T08:59:12;21.60;85.50
67141;DHT22;54058;52.010;5.546;2023-07-30T09:01:39;21.60;85.60
67141;DHT22;54058;52.010;5.546;2023-07-30T09:04:06;21.60;85.40
67141;DHT22;54058;52.010;5.546;2023-07-30T09:06:33;21.60;85.00
67141;DHT22;54058;52.010;5.546;2023-07-30T09:08:59;21.60;84.80
67141;DHT22;54058;52.010;5.546;2023-07-30T09:11:27;21.60;84.30
67141;DHT22;54058;52.010;5.546;2023-07-30T09:13:54;21.60;83.90
67141;DHT22;54058;52.010;5.546;2023-07-30T09:16:25;21.50;83.80
67141;DHT22;54058;52.010;5.546;2023-07-30T09:18:50;21.60;83.80
67141;DHT22;54058;52.010;5.546;2023-07-30T09:21:18;21.80;83.60
67141;DHT22;54058;52.010;5.546;2023-07-30T09:23:46;21.90;83.40
67141;DHT22;54058;52.010;5.546;2023-07-30T09:26:12;22.00;83.20
67141;DHT22;54058;52.010;5.546;2023-07-30T09:28:39;22.20;82.80
67141;DHT22;54058;52.010;5.546;2023-07-30T09:31:07;22.40;82.50
67141;DHT22;54058;52.010;5.546;2023-07-30T09:33:33;22.50;81.90
67141;DHT22;54058;52.010;5.546;2023-07-30T09:36:03;22.60;81.80
67141;DHT22;54058;52.010;5.546;2023-07-30T09:38:29;22.80;81.00
67141;DHT22;54058;52.010;5.546;2023-07-30T09:41:02;23.00;80.40
67141;DHT22;54058;52.010;5.546;2023-07-30T09:43:29;23.10;79.90
67141;DHT22;54058;52.010;5.546;2023-07-30T09:46:02;23.30;78.70
67141;DHT22;54058;52.010;5.546;2023-07-30T09:48:30;23.50;78.40
67141;DHT22;54058;52.010;5.546;2023-07-30T09:50:59;23.80;78.30
67141;DHT22;54058;52.010;5.546;2023-07-30T09:53:24;24.00;77.80
67141;DHT22;54058;52.010;5.546;2023-07-30T09:55:50;24.00;77.80
67141;DHT22;54058;52.010;5.546;2023-07-30T09:58:16;23.80;77.60
67141;DHT22;54058;52.010;5.546;2023-07-30T10:00:44;23.60;78.30
67141;DHT22;54058;52.010;5.546;2023-07-30T10:03:10;23.60;78.10
67141;DHT22;54058;52.010;5.546;2023-07-30T10:05:38;23.60;78.40
67141;DHT22;54058;52.010;5.546;2023-07-30T10:08:17;23.70;78.10
67141;DHT22;54058;52.010;5.546;2023-07-30T10:10:44;23.90;75.60
67141;DHT22;54058;52.010;5.546;2023-07-30T10:13:12;24.10;77.20
67141;DHT22;54058;52.010;5.546;2023-07-30T10:15:38;24.20;76.50
67141;DHT22;54058;52.010;5.546;2023-07-30T10:18:04;24.20;76.70
67141;DHT22;54058;52.010;5.546;2023-07-30T10:20:31;24.30;76.40
67141;DHT22;54058;52.010;5.546;2023-07-30T10:22:58;24.30;75.90
67141;DHT22;54058;52.010;5.546;2023-07-30T10:25:50;24.10;75.80
67141;DHT22;54058;52.010;5.546;2023-07-30T10:31:00;23.70;73.10
67141;DHT22;54058;52.010;5.546;2023-07-30T10:33:50;23.70;75.90
67141;DHT22;54058;52.010;5.546;2023-07-30T10:36:43;23.60;73.00
67141;DHT22;54058;52.010;5.546;2023-07-30T10:39:18;23.60;72.30
67141;DHT22;54058;52.010;5.546;2023-07-30T10:41:46;23.80;75.40
67141;DHT22;54058;52.010;5.546;2023-07-30T10:44:26;24.20;75.30
67141;DHT22;54058;52.010;5.546;2023-07-30T10:46:56;24.40;72.60
67141;DHT22;54058;52.010;5.546;2023-07-30T10:49:22;24.40;73.90
67141;DHT22;54058;52.010;5.546;2023-07-30T10:51:48;24.20;73.90
67141;DHT22;54058;52.010;5.546;2023-07-30T10:54:14;23.90;73.90
67141;DHT22;54058;52.010;5.546;2023-07-30T10:56:41;23.50;74.50
67141;DHT22;54058;52.010;5.546;2023-07-30T10:59:08;23.40;75.00
67141;DHT22;54058;52.010;5.546;2023-07-30T11:01:43;23.20;75.30
67141;DHT22;54058;52.010;5.546;2023-07-30T11:04:10;23.10;71.80
67141;DHT22;54058;52.010;5.546;2023-07-30T11:06:36;23.10;75.90
67141;DHT22;54058;52.010;5.546;2023-07-30T11:09:02;23.10;75.50
67141;DHT22;54058;52.010;5.546;2023-07-30T11:11:27;23.00;75.40
67141;DHT22;54058;52.010;5.546;2023-07-30T11:13:54;22.90;75.60
67141;DHT22;54058;52.010;5.546;2023-07-30T11:16:19;23.10;74.90
67141;DHT22;54058;52.010;5.546;2023-07-30T11:18:45;23.20;74.70
67141;DHT22;54058;52.010;5.546;2023-07-30T11:21:15;23.20;74.20
67141;DHT22;54058;52.010;5.546;2023-07-30T11:23:43;23.10;73.70
67141;DHT22;54058;52.010;5.546;2023-07-30T11:26:13;23.00;74.10
67141;DHT22;54058;52.010;5.546;2023-07-30T11:28:39;23.10;74.30
67141;DHT22;54058;52.010;5.546;2023-07-30T11:31:13;23.40;73.80
67141;DHT22;54058;52.010;5.546;2023-07-30T11:33:41;23.60;72.00
67141;DHT22;54058;52.010;5.546;2023-07-30T11:36:19;23.70;72.10
67141;DHT22;54058;52.010;5.546;2023-07-30T11:38:46;23.70;71.20
67141;DHT22;54058;52.010;5.546;2023-07-30T11:41:12;23.50;70.50
67141;DHT22;54058;52.010;5.546;2023-07-30T11:43:40;23.50;70.80
67141;DHT22;54058;52.010;5.546;2023-07-30T11:46:11;23.40;70.10
67141;DHT22;54058;52.010;5.546;2023-07-30T11:48:39;23.30;70.00
67141;DHT22;54058;52.010;5.546;2023-07-30T11:51:04;23.30;70.40
67141;DHT22;54058;52.010;5.546;2023-07-30T11:53:47;23.20;70.40
67141;DHT22;54058;52.010;5.546;2023-07-30T11:56:31;23.30;67.10
67141;DHT22;54058;52.010;5.546;2023-07-30T11:59:07;23.30;69.10
67141;DHT22;54058;52.010;5.546;2023-07-30T12:01:35;23.50;69.10
67141;DHT22;54058;52.010;5.546;2023-07-30T12:04:03;23.70;70.40
67141;DHT22;54058;52.010;5.546;2023-07-30T12:06:49;23.70;69.60
67141;DHT22;54058;52.010;5.546;2023-07-30T12:09:16;23.70;67.30
67141;DHT22;54058;52.010;5.546;2023-07-30T12:11:51;23.70;69.80
67141;DHT22;54058;52.010;5.546;2023-07-30T12:14:18;23.60;63.70
67141;DHT22;54058;52.010;5.546;2023-07-30T12:16:45;23.50;70.00
67141;DHT22;54058;52.010;5.546;2023-07-30T12:19:11;23.40;70.10
67141;DHT22;54058;52.010;5.546;2023-07-30T12:21:36;23.20;70.40
67141;DHT22;54058;52.010;5.546;2023-07-30T12:24:02;23.30;70.80
67141;DHT22;54058;52.010;5.546;2023-07-30T12:26:29;23.50;70.30
67141;DHT22;54058;52.010;5.546;2023-07-30T12:28:54;23.70;70.00
67141;DHT22;54058;52.010;5.546;2023-07-30T12:31:20;23.60;69.30
67141;DHT22;54058;52.010;5.546;2023-07-30T12:33:46;23.60;69.50
67141;DHT22;54058;52.010;5.546;2023-07-30T12:36:12;23.50;69.40
67141;DHT22;54058;52.010;5.546;2023-07-30T12:38:37;23.30;69.60
67141;DHT22;54058;52.010;5.546;2023-07-30T12:41:03;23.10;69.70
67141;DHT22;54058;52.010;5.546;2023-07-30T12:43:29;23.10;69.70
67141;DHT22;54058;52.010;5.546;2023-07-30T12:45:54;23.20;69.80
67141;DHT22;54058;52.010;5.546;2023-07-30T12:48:20;23.40;69.90
67141;DHT22;54058;52.010;5.546;2023-07-30T12:50:46;23.50;69.20
67141;DHT22;54058;52.010;5.546;2023-07-30T12:53:11;23.60;69.10
67141;DHT22;54058;52.010;5.546;2023-07-30T12:55:37;23.80;68.80
67141;DHT22;54058;52.010;5.546;2023-07-30T12:58:04;23.80;68.30
67141;DHT22;54058;52.010;5.546;2023-07-30T13:00:30;23.70;68.20
67141;DHT22;54058;52.010;5.546;2023-07-30T13:02:55;23.50;67.90
67141;DHT22;54058;52.010;5.546;2023-07-30T13:05:22;23.50;68.10
67141;DHT22;54058;52.010;5.546;2023-07-30T13:07:48;23.30;63.60
67141;DHT22;54058;52.010;5.546;2023-07-30T13:10:14;23.40;68.40
67141;DHT22;54058;52.010;5.546;2023-07-30T13:12:40;23.50;68.20
67141;DHT22;54058;52.010;5.546;2023-07-30T13:15:07;23.50;67.40
67141;DHT22;54058;52.010;5.546;2023-07-30T13:17:32;23.50;67.10
67141;DHT22;54058;52.010;5.546;2023-07-30T13:19:58;23.50;64.50
67141;DHT22;54058;52.010;5.546;2023-07-30T13:22:24;23.50;66.20
67141;DHT22;54058;52.010;5.546;2023-07-30T13:24:50;23.60;66.00
67141;DHT22;54058;52.010;5.546;2023-07-30T13:27:16;23.50;65.80
67141;DHT22;54058;52.010;5.546;2023-07-30T13:29:42;23.50;66.00
67141;DHT22;54058;52.010;5.546;2023-07-30T13:32:08;23.40;65.00
67141;DHT22;54058;52.010;5.546;2023-07-30T13:34:34;23.40;65.40
67141;DHT22;54058;52.010;5.546;2023-07-30T13:37:00;23.50;65.30
67141;DHT22;54058;52.010;5.546;2023-07-30T13:39:25;23.50;64.50
67141;DHT22;54058;52.010;5.546;2023-07-30T13:41:51;23.50;64.60
67141;DHT22;54058;52.010;5.546;2023-07-30T13:44:16;23.40;65.10
67141;DHT22;54058;52.010;5.546;2023-07-30T13:46:42;23.50;64.90
67141;DHT22;54058;52.010;5.546;2023-07-30T13:49:08;23.50;64.60
67141;DHT22;54058;52.010;5.546;2023-07-30T13:51:34;23.40;64.70
67141;DHT22;54058;52.010;5.546;2023-07-30T13:54:00;23.50;64.90
67141;DHT22;54058;52.010;5.546;2023-07-30T13:56:26;23.60;64.70
67141;DHT22;54058;52.010;5.546;2023-07-30T13:58:52;23.70;61.20
67141;DHT22;54058;52.010;5.546;2023-07-30T14:01:18;23.80;61.30
67141;DHT22;54058;52.010;5.546;2023-07-30T14:03:43;23.80;64.30
67141;DHT22;54058;52.010;5.546;2023-07-30T14:06:10;23.80;63.70
67141;DHT22;54058;52.010;5.546;2023-07-30T14:08:35;23.80;63.50
67141;DHT22;54058;52.010;5.546;2023-07-30T14:11:01;23.70;63.40
67141;DHT22;54058;52.010;5.546;2023-07-30T14:13:27;23.70;63.40
67141;DHT22;54058;52.010;5.546;2023-07-30T14:15:52;23.70;63.10
67141;DHT22;54058;52.010;5.546;2023-07-30T14:18:18;23.70;63.60
67141;DHT22;54058;52.010;5.546;2023-07-30T14:20:44;23.60;62.90
67141;DHT22;54058;52.010;5.546;2023-07-30T14:23:10;23.60;63.50
67141;DHT22;54058;52.010;5.546;2023-07-30T14:25:37;23.60;63.20
67141;DHT22;54058;52.010;5.546;2023-07-30T14:28:03;23.60;63.00
67141;DHT22;54058;52.010;5.546;2023-07-30T14:30:28;23.50;63.10
67141;DHT22;54058;52.010;5.546;2023-07-30T14:32:54;23.50;63.10
67141;DHT22;54058;52.010;5.546;2023-07-30T14:35:20;23.50;63.20
67141;DHT22;54058;52.010;5.546;2023-07-30T14:37:46;23.50;63.10
67141;DHT22;54058;52.010;5.546;2023-07-30T14:40:11;23.40;63.40
67141;DHT22;54058;52.010;5.546;2023-07-30T14:42:37;23.40;63.20
67141;DHT22;54058;52.010;5.546;2023-07-30T14:45:03;23.30;63.30
67141;DHT22;54058;52.010;5.546;2023-07-30T14:47:28;23.10;63.20
67141;DHT22;54058;52.010;5.546;2023-07-30T14:49:54;23.10;63.40
67141;DHT22;54058;52.010;5.546;2023-07-30T14:52:20;23.00;63.50
67141;DHT22;54058;52.010;5.546;2023-07-30T14:54:46;22.90;63.80
67141;DHT22;54058;52.010;5.546;2023-07-30T14:57:11;22.90;64.00
67141;DHT22;54058;52.010;5.546;2023-07-30T14:59:37;23.00;64.10
67141;DHT22;54058;52.010;5.546;2023-07-30T15:02:03;23.00;63.80
67141;DHT22;54058;52.010;5.546;2023-07-30T15:04:28;23.00;63.60
67141;DHT22;54058;52.010;5.546;2023-07-30T15:06:56;23.10;63.60
67141;DHT22;54058;52.010;5.546;2023-07-30T15:09:21;23.00;63.30
67141;DHT22;54058;52.010;5.546;2023-07-30T15:11:47;23.10;63.50
67141;DHT22;54058;52.010;5.546;2023-07-30T15:14:12;23.10;63.70
67141;DHT22;54058;52.010;5.546;2023-07-30T15:16:38;23.10;63.70
67141;DHT22;54058;52.010;5.546;2023-07-30T15:19:04;23.10;63.20
67141;DHT22;54058;52.010;5.546;2023-07-30T15:21:30;23.10;63.40
67141;DHT22;54058;52.010;5.546;2023-07-30T15:23:56;23.00;63.50
67141;DHT22;54058;52.010;5.546;2023-07-30T15:26:24;23.00;63.20
67141;DHT22;54058;52.010;5.546;2023-07-30T15:28:49;23.10;63.10